sensor_id;sensor_type;location;lat;lon;timestamp;pressure;altitude;pressure_sealevel;temperature;humidity
68137;BME280;54939;50.826;9.030;2022-09-09T00:00:31;98047.22;;;24.21;43.27
68137;BME280;54939;50.826;9.030;2022-09-09T00:02:00;98053.50;;;24.21;43.47
68137;BME280;54939;50.826;9.030;2022-09-09T00:02:31;98048.34;;;24.20;43.51
68137;BME280;54939;50.826;9.030;2022-09-09T00:03:06;98048.06;;;24.21;43.67
68137;BME280;54939;50.826;9.030;2022-09-09T00:03:48;98049.97;;;24.21;43.43
68137;BME280;54939;50.826;9.030;2022-09-09T00:04:58;98048.06;;;24.21;43.60
68137;BME280;54939;50.826;9.030;2022-09-09T00:05:34;98049.72;;;24.22;43.42
68137;BME280;54939;50.826;9.030;2022-09-09T00:06:11;98053.25;;;24.23;43.45
68137;BME280;54939;50.826;9.030;2022-09-09T00:07:21;98048.63;;;24.23;43.32
68137;BME280;54939;50.826;9.030;2022-09-09T00:07:54;98048.63;;;24.23;43.37
68137;BME280;54939;50.826;9.030;2022-09-09T00:08:29;98047.81;;;24.23;43.44
68137;BME280;54939;50.826;9.030;2022-09-09T00:09:06;98049.47;;;24.24;43.40
68137;BME280;54939;50.826;9.030;2022-09-09T00:09:46;98050.28;;;24.24;43.30
68137;BME280;54939;50.826;9.030;2022-09-09T00:10:50;98052.19;;;24.24;43.46
68137;BME280;54939;50.826;9.030;2022-09-09T00:12:25;98044.84;;;24.24;43.38
68137;BME280;54939;50.826;9.030;2022-09-09T00:13:19;98039.63;;;24.23;43.53
68137;BME280;54939;50.826;9.030;2022-09-09T00:13:53;98036.91;;;24.23;43.53
68137;BME280;54939;50.826;9.030;2022-09-09T00:15:05;98041.53;;;24.22;43.25
68137;BME280;54939;50.826;9.030;2022-09-09T00:16:21;98033.59;;;24.21;43.33
68137;BME280;54939;50.826;9.030;2022-09-09T00:16:56;98032.53;;;24.22;43.30
68137;BME280;54939;50.826;9.030;2022-09-09T00:17:35;98029.78;;;24.22;43.41
68137;BME280;54939;50.826;9.030;2022-09-09T00:18:23;98029.78;;;24.22;43.44
68137;BME280;54939;50.826;9.030;2022-09-09T00:19:00;98031.44;;;24.23;43.33
68137;BME280;54939;50.826;9.030;2022-09-09T00:19:36;98034.16;;;24.23;43.47
68137;BME280;54939;50.826;9.030;2022-09-09T00:20:14;98031.69;;;24.21;43.46
68137;BME280;54939;50.826;9.030;2022-09-09T00:20:55;98033.59;;;24.21;43.36
68137;BME280;54939;50.826;9.030;2022-09-09T00:21:33;98030.63;;;24.22;43.38
68137;BME280;54939;50.826;9.030;2022-09-09T00:22:19;98042.34;;;24.23;43.32
68137;BME280;54939;50.826;9.030;2022-09-09T00:23:00;98030.63;;;24.22;43.28
68137;BME280;54939;50.826;9.030;2022-09-09T00:23:35;98036.06;;;24.22;43.33
68137;BME280;54939;50.826;9.030;2022-09-09T00:24:24;98035.25;;;24.22;43.40
68137;BME280;54939;50.826;9.030;2022-09-09T00:24:57;98035.25;;;24.22;43.43
68137;BME280;54939;50.826;9.030;2022-09-09T00:25:40;98037.97;;;24.22;43.24
68137;BME280;54939;50.826;9.030;2022-09-09T00:26:47;98040.44;;;24.23;43.42
68137;BME280;54939;50.826;9.030;2022-09-09T00:27:22;98035.00;;;24.23;43.37
68137;BME280;54939;50.826;9.030;2022-09-09T00:27:53;98035.81;;;24.24;43.41
68137;BME280;54939;50.826;9.030;2022-09-09T00:28:24;98038.56;;;24.24;43.33
68137;BME280;54939;50.826;9.030;2022-09-09T00:29:45;98036.91;;;24.23;43.30
68137;BME280;54939;50.826;9.030;2022-09-09T00:30:18;98035.25;;;24.22;43.21
68137;BME280;54939;50.826;9.030;2022-09-09T00:30:50;98040.69;;;24.22;43.40
68137;BME280;54939;50.826;9.030;2022-09-09T00:31:21;98042.59;;;24.21;43.32
68137;BME280;54939;50.826;9.030;2022-09-09T00:32:00;98038.22;;;24.20;43.46
68137;BME280;54939;50.826;9.030;2022-09-09T00:32:34;98042.88;;;24.20;43.28
68137;BME280;54939;50.826;9.030;2022-09-09T00:33:11;98043.69;;;24.20;43.44
68137;BME280;54939;50.826;9.030;2022-09-09T00:33:41;98045.63;;;24.20;43.37
68137;BME280;54939;50.826;9.030;2022-09-09T00:34:13;98038.47;;;24.19;43.53
68137;BME280;54939;50.826;9.030;2022-09-09T00:34:54;98047.50;;;24.19;43.45
68137;BME280;54939;50.826;9.030;2022-09-09T00:35:27;98044.78;;;24.19;43.35
68137;BME280;54939;50.826;9.030;2022-09-09T00:35:59;98042.06;;;24.19;43.32
68137;BME280;54939;50.826;9.030;2022-09-09T00:36:30;98050.25;;;24.19;43.35
68137;BME280;54939;50.826;9.030;2022-09-09T00:37:03;98042.88;;;24.20;43.49
68137;BME280;54939;50.826;9.030;2022-09-09T00:37:33;98044.78;;;24.19;43.30
68137;BME280;54939;50.826;9.030;2022-09-09T00:38:15;98042.06;;;24.19;43.49
68137;BME280;54939;50.826;9.030;2022-09-09T00:39:04;98037.44;;;24.20;43.55
68137;BME280;54939;50.826;9.030;2022-09-09T00:39:39;98042.88;;;24.20;43.39
68137;BME280;54939;50.826;9.030;2022-09-09T00:40:16;98036.59;;;24.19;43.46
68137;BME280;54939;50.826;9.030;2022-09-09T00:42:14;98037.44;;;24.20;43.37
68137;BME280;54939;50.826;9.030;2022-09-09T00:42:44;98034.69;;;24.20;43.42
68137;BME280;54939;50.826;9.030;2022-09-09T00:43:24;98030.28;;;24.19;43.41
68137;BME280;54939;50.826;9.030;2022-09-09T00:43:56;98032.19;;;24.18;43.38
68137;BME280;54939;50.826;9.030;2022-09-09T00:44:34;98035.75;;;24.19;43.46
68137;BME280;54939;50.826;9.030;2022-09-09T00:45:33;98033.28;;;24.17;43.49
68137;BME280;54939;50.826;9.030;2022-09-09T00:46:10;98034.69;;;24.20;43.44
68137;BME280;54939;50.826;9.030;2022-09-09T00:46:54;98039.34;;;24.19;43.31
68137;BME280;54939;50.826;9.030;2022-09-09T00:47:39;98031.16;;;24.19;43.33
68137;BME280;54939;50.826;9.030;2022-09-09T00:48:12;98034.09;;;24.18;43.47
68137;BME280;54939;50.826;9.030;2022-09-09T00:49:55;98035.19;;;24.17;43.32
68137;BME280;54939;50.826;9.030;2022-09-09T00:51:29;98037.31;;;24.15;43.42
68137;BME280;54939;50.826;9.030;2022-09-09T00:52:34;98032.69;;;24.15;43.50
68137;BME280;54939;50.826;9.030;2022-09-09T00:53:12;98047.16;;;24.16;43.34
68137;BME280;54939;50.826;9.030;2022-09-09T00:54:44;98043.59;;;24.15;43.47
68137;BME280;54939;50.826;9.030;2022-09-09T00:55:32;98041.69;;;24.16;43.57
68137;BME280;54939;50.826;9.030;2022-09-09T00:56:14;98040.88;;;24.15;43.48
68137;BME280;54939;50.826;9.030;2022-09-09T00:56:52;98044.44;;;24.16;43.41
68137;BME280;54939;50.826;9.030;2022-09-09T00:57:29;98042.78;;;24.15;43.42
68137;BME280;54939;50.826;9.030;2022-09-09T00:57:59;98042.53;;;24.16;43.44
68137;BME280;54939;50.826;9.030;2022-09-09T00:58:30;98040.06;;;24.15;43.30
68137;BME280;54939;50.826;9.030;2022-09-09T00:59:03;98040.06;;;24.15;43.55
68137;BME280;54939;50.826;9.030;2022-09-09T00:59:46;98033.78;;;24.14;43.37
68137;BME280;54939;50.826;9.030;2022-09-09T01:00:52;98042.78;;;24.15;43.47
68137;BME280;54939;50.826;9.030;2022-09-09T01:01:24;98034.59;;;24.15;43.60
68137;BME280;54939;50.826;9.030;2022-09-09T01:01:54;98032.69;;;24.15;43.43
68137;BME280;54939;50.826;9.030;2022-09-09T01:02:29;98036.25;;;24.16;43.57
68137;BME280;54939;50.826;9.030;2022-09-09T01:03:54;98032.94;;;24.14;43.38
68137;BME280;54939;50.826;9.030;2022-09-09T01:04:28;98032.41;;;24.12;43.48
68137;BME280;54939;50.826;9.030;2022-09-09T01:05:04;98027.78;;;24.12;43.58
68137;BME280;54939;50.826;9.030;2022-09-09T01:05:46;98024.22;;;24.12;43.57
68137;BME280;54939;50.826;9.030;2022-09-09T01:06:52;98032.16;;;24.13;43.47
68137;BME280;54939;50.826;9.030;2022-09-09T01:07:25;98032.16;;;24.13;43.38
68137;BME280;54939;50.826;9.030;2022-09-09T01:07:55;98028.84;;;24.11;43.58
68137;BME280;54939;50.826;9.030;2022-09-09T01:09:29;98022.56;;;24.11;43.34
68137;BME280;54939;50.826;9.030;2022-09-09T01:10:04;98022.56;;;24.11;43.46
68137;BME280;54939;50.826;9.030;2022-09-09T01:10:42;98027.19;;;24.10;43.45
68137;BME280;54939;50.826;9.030;2022-09-09T01:11:20;98020.66;;;24.11;43.63
68137;BME280;54939;50.826;9.030;2022-09-09T01:13:24;98030.75;;;24.11;43.64
68137;BME280;54939;50.826;9.030;2022-09-09T01:13:58;98032.41;;;24.12;43.63
68137;BME280;54939;50.826;9.030;2022-09-09T01:15:36;98026.94;;;24.12;43.39
68137;BME280;54939;50.826;9.030;2022-09-09T01:16:10;98031.56;;;24.11;43.69
68137;BME280;54939;50.826;9.030;2022-09-09T01:16:41;98027.44;;;24.09;43.61
68137;BME280;54939;50.826;9.030;2022-09-09T01:17:19;98037.28;;;24.10;43.56
68137;BME280;54939;50.826;9.030;2022-09-09T01:17:55;98029.09;;;24.10;43.71
68137;BME280;54939;50.826;9.030;2022-09-09T01:18:31;98036.47;;;24.09;43.68
68137;BME280;54939;50.826;9.030;2022-09-09T01:19:04;98035.63;;;24.09;43.65
68137;BME280;54939;50.826;9.030;2022-09-09T01:20:13;98039.19;;;24.09;43.65
68137;BME280;54939;50.826;9.030;2022-09-09T01:20:49;98035.63;;;24.09;43.71
68137;BME280;54939;50.826;9.030;2022-09-09T01:22:05;98040.00;;;24.10;43.67
68137;BME280;54939;50.826;9.030;2022-09-09T01:22:50;98032.66;;;24.10;43.43
68137;BME280;54939;50.826;9.030;2022-09-09T01:23:37;98026.38;;;24.10;43.64
68137;BME280;54939;50.826;9.030;2022-09-09T01:24:16;98038.34;;;24.09;43.66
68137;BME280;54939;50.826;9.030;2022-09-09T01:25:05;98038.94;;;24.11;43.52
68137;BME280;54939;50.826;9.030;2022-09-09T01:26:26;98040.00;;;24.10;43.55
68137;BME280;54939;50.826;9.030;2022-09-09T01:26:59;98034.56;;;24.10;43.56
68137;BME280;54939;50.826;9.030;2022-09-09T01:27:31;98037.28;;;24.10;43.50
68137;BME280;54939;50.826;9.030;2022-09-09T01:28:03;98031.81;;;24.10;43.56
68137;BME280;54939;50.826;9.030;2022-09-09T01:28:35;98031.81;;;24.10;43.57
68137;BME280;54939;50.826;9.030;2022-09-09T01:29:07;98032.91;;;24.09;43.46
68137;BME280;54939;50.826;9.030;2022-09-09T01:29:38;98034.56;;;24.10;43.50
68137;BME280;54939;50.826;9.030;2022-09-09T01:30:12;98033.72;;;24.09;43.58
68137;BME280;54939;50.826;9.030;2022-09-09T01:30:43;98035.63;;;24.09;43.43
68137;BME280;54939;50.826;9.030;2022-09-09T01:31:15;98033.72;;;24.09;43.53
68137;BME280;54939;50.826;9.030;2022-09-09T01:31:53;98033.72;;;24.09;43.76
68137;BME280;54939;50.826;9.030;2022-09-09T01:33:28;98033.72;;;24.09;43.48
68137;BME280;54939;50.826;9.030;2022-09-09T01:33:58;98041.09;;;24.09;43.70
68137;BME280;54939;50.826;9.030;2022-09-09T01:34:30;98036.47;;;24.09;43.41
68137;BME280;54939;50.826;9.030;2022-09-09T01:35:02;98035.63;;;24.09;43.58
68137;BME280;54939;50.826;9.030;2022-09-09T01:35:49;98035.63;;;24.09;43.46
68137;BME280;54939;50.826;9.030;2022-09-09T01:36:26;98031.00;;;24.09;43.53
68137;BME280;54939;50.826;9.030;2022-09-09T01:36:59;98034.81;;;24.08;43.53
68137;BME280;54939;50.826;9.030;2022-09-09T01:37:31;98034.81;;;24.08;43.66
68137;BME280;54939;50.826;9.030;2022-09-09T01:38:01;98030.19;;;24.09;43.46
68137;BME280;54939;50.826;9.030;2022-09-09T01:38:31;98037.28;;;24.10;43.52
68137;BME280;54939;50.826;9.030;2022-09-09T01:39:02;98034.81;;;24.08;43.42
68137;BME280;54939;50.826;9.030;2022-09-09T01:39:33;98031.25;;;24.08;43.58
68137;BME280;54939;50.826;9.030;2022-09-09T01:40:04;98039.44;;;24.08;43.64
68137;BME280;54939;50.826;9.030;2022-09-09T01:40:35;98036.72;;;24.08;43.67
68137;BME280;54939;50.826;9.030;2022-09-09T01:41:05;98032.91;;;24.09;43.55
68137;BME280;54939;50.826;9.030;2022-09-09T01:41:35;98026.63;;;24.08;43.59
68137;BME280;54939;50.826;9.030;2022-09-09T01:42:06;98032.66;;;24.10;43.60
68137;BME280;54939;50.826;9.030;2022-09-09T01:42:37;98031.81;;;24.10;43.50
68137;BME280;54939;50.826;9.030;2022-09-09T01:43:08;98034.56;;;24.10;43.50
68137;BME280;54939;50.826;9.030;2022-09-09T01:43:38;98035.38;;;24.10;43.48
68137;BME280;54939;50.826;9.030;2022-09-09T01:44:08;98032.91;;;24.09;43.64
68137;BME280;54939;50.826;9.030;2022-09-09T01:44:39;98032.66;;;24.10;43.44
68137;BME280;54939;50.826;9.030;2022-09-09T01:45:09;98028.84;;;24.11;43.50
68137;BME280;54939;50.826;9.030;2022-09-09T01:45:40;98032.41;;;24.12;43.35
68137;BME280;54939;50.826;9.030;2022-09-09T01:46:11;98037.59;;;24.13;43.67
68137;BME280;54939;50.826;9.030;2022-09-09T01:46:42;98035.13;;;24.12;43.44
68137;BME280;54939;50.826;9.030;2022-09-09T01:47:12;98035.38;;;24.10;43.61
68137;BME280;54939;50.826;9.030;2022-09-09T01:47:44;98036.47;;;24.09;43.39
68137;BME280;54939;50.826;9.030;2022-09-09T01:48:15;98031.00;;;24.09;43.48
68137;BME280;54939;50.826;9.030;2022-09-09T01:48:45;98029.09;;;24.10;43.62
68137;BME280;54939;50.826;9.030;2022-09-09T01:49:16;98040.00;;;24.10;43.55
68137;BME280;54939;50.826;9.030;2022-09-09T01:49:46;98037.53;;;24.08;43.40
68137;BME280;54939;50.826;9.030;2022-09-09T01:50:17;98034.56;;;24.10;43.46
68137;BME280;54939;50.826;9.030;2022-09-09T01:50:47;98043.56;;;24.10;43.49
68137;BME280;54939;50.826;9.030;2022-09-09T01:51:17;98031.00;;;24.09;43.40
68137;BME280;54939;50.826;9.030;2022-09-09T01:51:49;98032.91;;;24.09;43.50
68137;BME280;54939;50.826;9.030;2022-09-09T01:52:20;98034.81;;;24.08;43.48
68137;BME280;54939;50.826;9.030;2022-09-09T01:52:52;98038.34;;;24.09;43.59
68137;BME280;54939;50.826;9.030;2022-09-09T01:53:24;98040.25;;;24.08;43.40
68137;BME280;54939;50.826;9.030;2022-09-09T01:53:55;98040.25;;;24.08;43.44
68137;BME280;54939;50.826;9.030;2022-09-09T01:54:26;98041.91;;;24.09;43.46
68137;BME280;54939;50.826;9.030;2022-09-09T01:54:57;98028.53;;;24.08;43.59
68137;BME280;54939;50.826;9.030;2022-09-09T01:55:29;98035.63;;;24.09;43.42
68137;BME280;54939;50.826;9.030;2022-09-09T01:56:53;98038.34;;;24.09;43.59
68137;BME280;54939;50.826;9.030;2022-09-09T01:57:31;98042.72;;;24.10;43.42
68137;BME280;54939;50.826;9.030;2022-09-09T01:58:11;98040.25;;;24.08;43.47
68137;BME280;54939;50.826;9.030;2022-09-09T02:00:00;98037.78;;;24.07;43.42
68137;BME280;54939;50.826;9.030;2022-09-09T02:00:31;98033.97;;;24.08;43.38
68137;BME280;54939;50.826;9.030;2022-09-09T02:01:15;98036.72;;;24.08;43.33
68137;BME280;54939;50.826;9.030;2022-09-09T02:03:00;98036.72;;;24.08;43.42
68137;BME280;54939;50.826;9.030;2022-09-09T02:03:34;98041.34;;;24.07;43.56
68137;BME280;54939;50.826;9.030;2022-09-09T02:04:08;98029.59;;;24.07;43.41
68137;BME280;54939;50.826;9.030;2022-09-09T02:04:44;98036.97;;;24.06;43.48
68137;BME280;54939;50.826;9.030;2022-09-09T02:05:49;98033.44;;;24.06;43.55
68137;BME280;54939;50.826;9.030;2022-09-09T02:06:30;98036.97;;;24.06;43.49
68137;BME280;54939;50.826;9.030;2022-09-09T02:07:02;98035.34;;;24.05;43.45
68137;BME280;54939;50.826;9.030;2022-09-09T02:07:40;98033.44;;;24.06;43.65
68137;BME280;54939;50.826;9.030;2022-09-09T02:08:11;98031.78;;;24.05;43.67
68137;BME280;54939;50.826;9.030;2022-09-09T02:08:45;98035.06;;;24.07;43.60
68137;BME280;54939;50.826;9.030;2022-09-09T02:09:17;98036.97;;;24.06;43.54
68137;BME280;54939;50.826;9.030;2022-09-09T02:09:50;98035.06;;;24.07;43.60
68137;BME280;54939;50.826;9.030;2022-09-09T02:10:26;98032.91;;;24.09;43.37
68137;BME280;54939;50.826;9.030;2022-09-09T02:11:07;98037.78;;;24.07;43.64
68137;BME280;54939;50.826;9.030;2022-09-09T02:11:40;98037.78;;;24.07;43.48
68137;BME280;54939;50.826;9.030;2022-09-09T02:12:13;98039.97;;;24.05;43.68
68137;BME280;54939;50.826;9.030;2022-09-09T02:12:45;98051.69;;;24.05;43.36
68137;BME280;54939;50.826;9.030;2022-09-09T02:13:17;98041.63;;;24.06;43.74
68137;BME280;54939;50.826;9.030;2022-09-09T02:13:49;98032.59;;;24.05;43.66
68137;BME280;54939;50.826;9.030;2022-09-09T02:14:22;98042.69;;;24.05;43.59
68137;BME280;54939;50.826;9.030;2022-09-09T02:15:00;98047.91;;;24.06;43.32
68137;BME280;54939;50.826;9.030;2022-09-09T02:15:34;98039.72;;;24.06;43.29
68137;BME280;54939;50.826;9.030;2022-09-09T02:16:24;98043.22;;;24.07;43.34
68137;BME280;54939;50.826;9.030;2022-09-09T02:16:57;98044.06;;;24.07;43.38
68137;BME280;54939;50.826;9.030;2022-09-09T02:17:32;98051.41;;;24.07;43.48
68137;BME280;54939;50.826;9.030;2022-09-09T02:18:04;98047.63;;;24.08;43.37
68137;BME280;54939;50.826;9.030;2022-09-09T02:18:43;98048.69;;;24.07;43.54
68137;BME280;54939;50.826;9.030;2022-09-09T02:19:17;98043.22;;;24.07;43.59
68137;BME280;54939;50.826;9.030;2022-09-09T02:19:56;98047.91;;;24.06;43.50
68137;BME280;54939;50.826;9.030;2022-09-09T02:20:28;98047.91;;;24.06;43.29
68137;BME280;54939;50.826;9.030;2022-09-09T02:21:02;98046.53;;;24.09;43.34
68137;BME280;54939;50.826;9.030;2022-09-09T02:21:32;98048.69;;;24.07;43.45
68137;BME280;54939;50.826;9.030;2022-09-09T02:22:05;98047.06;;;24.06;43.60
68137;BME280;54939;50.826;9.030;2022-09-09T02:22:35;98047.06;;;24.06;43.28
68137;BME280;54939;50.826;9.030;2022-09-09T02:23:09;98052.53;;;24.06;43.60
68137;BME280;54939;50.826;9.030;2022-09-09T02:23:41;98052.53;;;24.06;43.57
68137;BME280;54939;50.826;9.030;2022-09-09T02:24:12;98047.06;;;24.06;43.35
68137;BME280;54939;50.826;9.030;2022-09-09T02:24:44;98050.34;;;24.08;43.27
68137;BME280;54939;50.826;9.030;2022-09-09T02:25:17;98047.91;;;24.06;43.59
68137;BME280;54939;50.826;9.030;2022-09-09T02:25:48;98051.41;;;24.07;43.26
68137;BME280;54939;50.826;9.030;2022-09-09T02:26:19;98044.34;;;24.06;43.62
68137;BME280;54939;50.826;9.030;2022-09-09T02:26:52;98048.13;;;24.05;43.36
68137;BME280;54939;50.826;9.030;2022-09-09T02:27:24;98063.44;;;24.06;43.41
68137;BME280;54939;50.826;9.030;2022-09-09T02:27:54;98052.53;;;24.06;43.43
68137;BME280;54939;50.826;9.030;2022-09-09T02:28:25;98044.00;;;24.02;43.41
68137;BME280;54939;50.826;9.030;2022-09-09T02:28:59;98043.75;;;24.04;43.63
68137;BME280;54939;50.826;9.030;2022-09-09T02:29:33;98053.84;;;24.03;43.41
68137;BME280;54939;50.826;9.030;2022-09-09T02:30:04;98049.22;;;24.04;43.45
68137;BME280;54939;50.826;9.030;2022-09-09T02:30:34;98050.03;;;24.04;43.52
68137;BME280;54939;50.826;9.030;2022-09-09T02:31:07;98046.50;;;24.04;43.63
68137;BME280;54939;50.826;9.030;2022-09-09T02:31:38;98049.22;;;24.04;43.43
68137;BME280;54939;50.826;9.030;2022-09-09T02:32:11;98048.97;;;24.05;43.47
68137;BME280;54939;50.826;9.030;2022-09-09T02:32:44;98042.69;;;24.05;43.46
68137;BME280;54939;50.826;9.030;2022-09-09T02:33:15;98040.78;;;24.05;43.65
68137;BME280;54939;50.826;9.030;2022-09-09T02:33:47;98037.47;;;24.03;43.59
68137;BME280;54939;50.826;9.030;2022-09-09T02:34:20;98047.56;;;24.03;43.46
68137;BME280;54939;50.826;9.030;2022-09-09T02:34:54;98043.19;;;24.02;43.43
68137;BME280;54939;50.826;9.030;2022-09-09T02:35:26;98056.81;;;24.02;43.59
68137;BME280;54939;50.826;9.030;2022-09-09T02:36:00;98054.34;;;24.00;43.65
68137;BME280;54939;50.826;9.030;2022-09-09T02:36:33;98048.06;;;24.00;43.57
68137;BME280;54939;50.826;9.030;2022-09-09T02:37:06;98050.00;;;23.99;43.49
68137;BME280;54939;50.826;9.030;2022-09-09T02:37:38;98050.53;;;24.01;43.60
68137;BME280;54939;50.826;9.030;2022-09-09T02:38:11;98048.88;;;24.00;43.63
68137;BME280;54939;50.826;9.030;2022-09-09T02:38:45;98051.38;;;24.02;43.68
68137;BME280;54939;50.826;9.030;2022-09-09T02:39:15;98044.00;;;24.02;43.52
68137;BME280;54939;50.826;9.030;2022-09-09T02:39:46;98044.00;;;24.02;43.44
68137;BME280;54939;50.826;9.030;2022-09-09T02:40:16;98044.00;;;24.02;43.56
68137;BME280;54939;50.826;9.030;2022-09-09T02:40:47;98044.00;;;24.02;43.55
68137;BME280;54939;50.826;9.030;2022-09-09T02:41:18;98045.09;;;24.01;43.65
68137;BME280;54939;50.826;9.030;2022-09-09T02:41:51;98044.25;;;24.01;43.54
68137;BME280;54939;50.826;9.030;2022-09-09T02:42:21;98052.44;;;24.01;43.67
68137;BME280;54939;50.826;9.030;2022-09-09T02:42:53;98046.16;;;24.00;43.62
68137;BME280;54939;50.826;9.030;2022-09-09T02:43:24;98042.59;;;24.00;43.56
68137;BME280;54939;50.826;9.030;2022-09-09T02:43:54;98039.09;;;23.99;43.66
68137;BME280;54939;50.826;9.030;2022-09-09T02:44:25;98044.53;;;23.99;43.54
68137;BME280;54939;50.826;9.030;2022-09-09T02:44:55;98048.06;;;24.00;43.58
68137;BME280;54939;50.826;9.030;2022-09-09T02:45:27;98042.13;;;24.03;43.37
68137;BME280;54939;50.826;9.030;2022-09-09T02:48:09;98042.94;;;24.03;43.65
68137;BME280;54939;50.826;9.030;2022-09-09T02:49:28;98040.47;;;24.02;43.55
68137;BME280;54939;50.826;9.030;2022-09-09T02:51:24;98042.13;;;24.03;43.28
68137;BME280;54939;50.826;9.030;2022-09-09T02:52:06;98049.72;;;24.01;43.40
68137;BME280;54939;50.826;9.030;2022-09-09T02:52:38;98043.44;;;24.00;43.52
68137;BME280;54939;50.826;9.030;2022-09-09T02:53:19;98041.53;;;24.01;43.40
68137;BME280;54939;50.826;9.030;2022-09-09T02:53:57;98048.88;;;24.00;43.36
68137;BME280;54939;50.826;9.030;2022-09-09T02:54:33;98044.84;;;24.03;43.40
68137;BME280;54939;50.826;9.030;2022-09-09T02:55:05;98041.53;;;24.01;43.23
68137;BME280;54939;50.826;9.030;2022-09-09T02:56:14;98050.53;;;24.01;43.50
68137;BME280;54939;50.826;9.030;2022-09-09T02:56:47;98064.16;;;24.01;43.50
68137;BME280;54939;50.826;9.030;2022-09-09T02:57:23;98048.88;;;24.00;43.54
68137;BME280;54939;50.826;9.030;2022-09-09T02:57:55;98053.50;;;24.00;43.54
68137;BME280;54939;50.826;9.030;2022-09-09T02:58:26;98052.44;;;24.01;43.33
68137;BME280;54939;50.826;9.030;2022-09-09T02:58:57;98057.06;;;24.00;43.54
68137;BME280;54939;50.826;9.030;2022-09-09T02:59:27;98041.53;;;24.01;43.54
68137;BME280;54939;50.826;9.030;2022-09-09T02:59:57;98052.44;;;24.01;43.61
68137;BME280;54939;50.826;9.030;2022-09-09T03:00:28;98047.81;;;24.01;43.54
68137;BME280;54939;50.826;9.030;2022-09-09T03:00:58;98044.00;;;24.02;43.21
68137;BME280;54939;50.826;9.030;2022-09-09T03:01:31;98051.63;;;24.00;43.41
68137;BME280;54939;50.826;9.030;2022-09-09T03:02:02;98055.44;;;23.99;43.39
68137;BME280;54939;50.826;9.030;2022-09-09T03:02:32;98050.00;;;23.99;43.59
68137;BME280;54939;50.826;9.030;2022-09-09T03:03:06;98043.44;;;24.00;43.59
68137;BME280;54939;50.826;9.030;2022-09-09T03:03:36;98055.16;;;24.01;43.36
68137;BME280;54939;50.826;9.030;2022-09-09T03:04:07;98050.78;;;24.00;43.30
68137;BME280;54939;50.826;9.030;2022-09-09T03:04:37;98055.44;;;23.99;43.60
68137;BME280;54939;50.826;9.030;2022-09-09T03:05:07;98058.19;;;23.99;43.61
68137;BME280;54939;50.826;9.030;2022-09-09T03:05:38;98051.91;;;23.99;43.52
68137;BME280;54939;50.826;9.030;2022-09-09T03:06:08;98054.63;;;23.99;43.52
68137;BME280;54939;50.826;9.030;2022-09-09T03:06:38;98047.28;;;23.99;43.48
68137;BME280;54939;50.826;9.030;2022-09-09T03:07:09;98059.78;;;24.00;43.43
68137;BME280;54939;50.826;9.030;2022-09-09T03:07:39;98056.81;;;24.02;43.50
68137;BME280;54939;50.826;9.030;2022-09-09T03:08:10;98059.53;;;24.02;43.43
68137;BME280;54939;50.826;9.030;2022-09-09T03:08:40;98058.97;;;24.00;43.50
68137;BME280;54939;50.826;9.030;2022-09-09T03:09:11;98061.69;;;24.00;43.61
68137;BME280;54939;50.826;9.030;2022-09-09T03:09:42;98056.53;;;23.98;43.64
68137;BME280;54939;50.826;9.030;2022-09-09T03:10:12;98051.06;;;23.98;43.60
68137;BME280;54939;50.826;9.030;2022-09-09T03:10:43;98060.31;;;23.97;43.51
68137;BME280;54939;50.826;9.030;2022-09-09T03:11:13;98060.31;;;23.97;43.54
68137;BME280;54939;50.826;9.030;2022-09-09T03:11:44;98064.94;;;23.97;43.43
68137;BME280;54939;50.826;9.030;2022-09-09T03:12:14;98063.06;;;23.97;43.60
68137;BME280;54939;50.826;9.030;2022-09-09T03:12:44;98059.50;;;23.97;43.72
68137;BME280;54939;50.826;9.030;2022-09-09T03:13:14;98057.03;;;23.95;43.64
68137;BME280;54939;50.826;9.030;2022-09-09T03:13:45;98063.31;;;23.95;43.52
68137;BME280;54939;50.826;9.030;2022-09-09T03:14:15;98054.28;;;23.95;43.49
68137;BME280;54939;50.826;9.030;2022-09-09T03:14:46;98070.41;;;23.97;43.68
68137;BME280;54939;50.826;9.030;2022-09-09T03:15:16;98061.41;;;23.96;43.44
68137;BME280;54939;50.826;9.030;2022-09-09T03:15:47;98057.84;;;23.95;43.39
68137;BME280;54939;50.826;9.030;2022-09-09T03:16:18;98056.78;;;23.97;43.47
68137;BME280;54939;50.826;9.030;2022-09-09T03:16:48;98054.88;;;23.97;43.38
68137;BME280;54939;50.826;9.030;2022-09-09T03:17:18;98056.44;;;23.93;43.53
68137;BME280;54939;50.826;9.030;2022-09-09T03:17:48;98057.53;;;23.92;43.69
68137;BME280;54939;50.826;9.030;2022-09-09T03:18:18;98056.72;;;23.91;43.77
68137;BME280;54939;50.826;9.030;2022-09-09T03:18:49;98056.72;;;23.91;43.71
68137;BME280;54939;50.826;9.030;2022-09-09T03:19:19;98056.97;;;23.90;43.45
68137;BME280;54939;50.826;9.030;2022-09-09T03:19:49;98058.63;;;23.91;43.48
68137;BME280;54939;50.826;9.030;2022-09-09T03:20:25;98059.16;;;23.93;43.59
68137;BME280;54939;50.826;9.030;2022-09-09T03:20:56;98056.44;;;23.93;43.41
68137;BME280;54939;50.826;9.030;2022-09-09T03:21:27;98061.66;;;23.94;43.50
68137;BME280;54939;50.826;9.030;2022-09-09T03:21:57;98049.66;;;23.95;43.50
68137;BME280;54939;50.826;9.030;2022-09-09T03:22:28;98052.41;;;23.95;43.50
68137;BME280;54939;50.826;9.030;2022-09-09T03:22:59;98052.41;;;23.95;43.60
68137;BME280;54939;50.826;9.030;2022-09-09T03:23:29;98055.13;;;23.95;43.56
68137;BME280;54939;50.826;9.030;2022-09-09T03:23:59;98050.50;;;23.96;43.48
68137;BME280;54939;50.826;9.030;2022-09-09T03:24:30;98049.91;;;23.94;43.62
68137;BME280;54939;50.826;9.030;2022-09-09T03:25:00;98057.28;;;23.93;43.46
68137;BME280;54939;50.826;9.030;2022-09-09T03:25:30;98053.72;;;23.93;43.47
68137;BME280;54939;50.826;9.030;2022-09-09T03:26:01;98052.91;;;23.92;43.67
68137;BME280;54939;50.826;9.030;2022-09-09T03:26:32;98042.81;;;23.93;43.37
68137;BME280;54939;50.826;9.030;2022-09-09T03:27:02;98050.75;;;23.94;43.48
68137;BME280;54939;50.826;9.030;2022-09-09T03:27:32;98047.19;;;23.94;43.59